Panama City, Florida
Current Conditions -  °F | °C
As of 2:58 PM on Thursday 27 Nov 2014 (Local Time) from KPAM Reporting Station
Clear Clear  
Wind Chill: 60°   Ceiling: Unl
Heat Index: 60°   Visibility: 10mi
Dew Point: 38°   Wind: 10mph
Humidity: 45%   Direction: 350°N
Pressure: 30.28"   Gusts: NA
Location:  30.16°N, 85.66°W
Report Text: KPAM 272058Z AUTO 35009KT 10SM CLR 16/04 A3028 RMK AO2 SLP257 T01560036 55007 $
Loading
Personal Weather Stations






























Interactive Weather Map New forecast layout! Learn more

10-Day Weather Forecast

Advertisements
Track Severe Weather on mobile